メインページ
METAR-TAF:

METAR-TAF

空港 :

シンガポール・チャンギ国際空港

シンガポール, シンガポール

緯度: 01-22N, 経度: 103-59E, 海抜: 5m

現時点の気象観測

当レポートは13分前の03:00(UTC)に作成
の風 5kt、南/南東から南西の間で変化する
気温 29°C
湿度 79%
気圧 1010 hPa
視程10km以上
高度1600ftの雲は散在している
高度1800ftの雲はほとんどない, 塔状積雲.
高度30000ftの千切れ雲あり
弱いにわか雨

METAR: WSSS 210300Z 17005KT 150V220 9999 -SHRA SCT016 FEW018TCU BKN300 29/25 Q1010 TEMPO TL0400 3000 TSRA FEW015CB SCT018

時間: 11:13 (03:13 UTC)

予報

当レポートは4時間13分前の23:00(UTC)に作成
予報は21日の 00時(UTC)から 22日の 06時(UTC)まで有効
の風 7kt
視程10km以上
高度1800ftの雲はほとんどない, 積乱雲.
高度2000ftの雲は散在している
21日の 03時(UTC)から 21日の 07時(UTC)まで一時的に
視程: 3000m
高度1200ftの雲はほとんどない, 積乱雲.
高度1500ftの千切れ雲あり
激しい雷雨, 雨

TAF: WSSS 202300Z 2100/2206 19007KT 9999 FEW018CB SCT020 TEMPO 2103/2107 3000 TSRA FEW012CB BKN015

4,000以上の空港の気象観測と天気予報(METAR報とTAF報)

利用可能な観測所は地図上に黄色い丸と赤い丸で示す。

丸の上にカーソルを重ねると観測所名を参照できる。

次にクリックすると気象観測と天気予報を参照できる。

マップの切り替え:黒色「×」印の緑ボタンをクリックして拡大、「-」印の緑ボタンをクリックして縮小、緑色の三角印をクリックして隣りの地図に切り替え


METAR-TAF: